createdAt,value
2018-02-20T00:00:37.489Z,101454.92
2018-02-20T00:03:12.488Z,101457.50
2018-02-20T00:05:47.678Z,101455.36
2018-02-20T00:08:23.314Z,101461.63
2018-02-20T00:10:58.477Z,101452.98
2018-02-20T00:13:33.539Z,101456.55
2018-02-20T00:16:08.719Z,101451.39
2018-02-20T00:18:44.291Z,101447.89
2018-02-20T00:21:19.480Z,101451.25
2018-02-20T00:23:54.407Z,101443.16
2018-02-20T00:26:29.523Z,101446.60
2018-02-20T00:29:04.867Z,101446.19
2018-02-20T00:31:39.888Z,101437.50
2018-02-20T00:34:15.095Z,101449.14
2018-02-20T00:36:49.500Z,101444.97
2018-02-20T00:39:24.390Z,101442.48
2018-02-20T00:41:59.676Z,101429.53
2018-02-20T00:44:34.080Z,101435.06
2018-02-20T00:47:09.335Z,101436.52
2018-02-20T00:49:43.788Z,101434.78
2018-02-20T00:52:18.443Z,101437.45
2018-02-20T00:54:53.551Z,101435.33
2018-02-20T00:57:28.471Z,101438.91
2018-02-20T01:00:03.224Z,101434.15
2018-02-20T01:02:38.627Z,101431.59
2018-02-20T01:05:13.693Z,101437.86
2018-02-20T01:07:48.581Z,101428.25
2018-02-20T01:10:23.392Z,101433.56
2018-02-20T01:12:58.844Z,101434.56
2018-02-20T01:15:33.812Z,101428.52
2018-02-20T01:18:08.921Z,101426.87
2018-02-20T01:20:43.792Z,101431.38
2018-02-20T01:23:18.911Z,101428.73
2018-02-20T01:25:54.576Z,101432.65
2018-02-20T01:28:28.928Z,101428.33
2018-02-20T01:31:04.575Z,101429.63
2018-02-20T01:33:39.606Z,101429.61
2018-02-20T01:36:14.654Z,101434.53
2018-02-20T01:38:49.703Z,101440.26
2018-02-20T01:41:24.240Z,101440.79
2018-02-20T01:43:59.783Z,101435.52
2018-02-20T01:46:34.740Z,101442.63
2018-02-20T01:49:09.667Z,101446.20
2018-02-20T01:51:44.620Z,101448.89
2018-02-20T01:54:19.739Z,101455.88
2018-02-20T01:56:54.400Z,101452.24
2018-02-20T01:59:29.559Z,101455.61
2018-02-20T02:02:04.115Z,101451.25
2018-02-20T02:04:39.020Z,101455.38
2018-02-20T02:07:13.760Z,101453.25
2018-02-20T02:09:48.686Z,101453.76
2018-02-20T02:12:23.023Z,101453.84
2018-02-20T02:14:58.284Z,101446.95
2018-02-20T02:17:32.847Z,101451.05
2018-02-20T02:20:07.803Z,101454.68
2018-02-20T02:22:42.847Z,101449.96
2018-02-20T02:25:17.800Z,101451.86
2018-02-20T02:27:53.003Z,101448.84
2018-02-20T02:30:28.172Z,101452.86
2018-02-20T02:33:03.380Z,101453.33
2018-02-20T02:35:37.947Z,101456.05
2018-02-20T02:38:13.807Z,101450.86
2018-02-20T02:40:48.780Z,101442.05
2018-02-20T02:43:23.840Z,101445.56
2018-02-20T02:45:58.515Z,101445.14
2018-02-20T02:48:33.801Z,101443.84
2018-02-20T02:51:09.052Z,101450.87
2018-02-20T02:53:43.864Z,101448.24
2018-02-20T02:56:18.743Z,101447.38
2018-02-20T02:58:53.019Z,101446.89
2018-02-20T03:01:27.377Z,101450.45
2018-02-20T03:04:02.520Z,101450.45
2018-02-20T03:06:37.275Z,101451.66
2018-02-20T03:09:12.123Z,101445.86
2018-02-20T03:11:46.900Z,101448.04
2018-02-20T03:14:22.083Z,101451.16
2018-02-20T03:16:57.271Z,101454.33
2018-02-20T03:19:31.935Z,101449.12
2018-02-20T03:22:07.227Z,101450.96
2018-02-20T03:24:41.987Z,101448.88
2018-02-20T03:27:17.083Z,101444.91
2018-02-20T03:29:51.823Z,101442.23
2018-02-20T03:32:26.184Z,101444.72
2018-02-20T03:35:01.332Z,101447.69
2018-02-20T03:37:36.423Z,101446.80
2018-02-20T03:40:11.583Z,101447.78
2018-02-20T03:42:46.225Z,101448.73
2018-02-20T03:45:21.499Z,101447.04
2018-02-20T03:47:57.278Z,101439.58
2018-02-20T03:50:31.915Z,101447.53
2018-02-20T03:53:07.003Z,101448.48
2018-02-20T03:55:42.007Z,101447.70
2018-02-20T03:58:16.944Z,101446.50
2018-02-20T04:00:52.104Z,101450.06
2018-02-20T04:03:27.247Z,101447.51
2018-02-20T04:06:02.524Z,101446.30
2018-02-20T04:08:37.036Z,101449.85
2018-02-20T04:11:12.359Z,101453.02
2018-02-20T04:13:47.038Z,101450.86
2018-02-20T04:16:21.382Z,101447.41
2018-02-20T04:18:57.310Z,101449.20
2018-02-20T04:21:32.282Z,101452.77
2018-02-20T04:24:07.167Z,101455.90
2018-02-20T04:26:42.045Z,101458.60
2018-02-20T04:29:17.191Z,101458.22
2018-02-20T04:31:52.070Z,101462.25
2018-02-20T04:34:27.347Z,101459.73
2018-02-20T04:37:02.204Z,101465.53
2018-02-20T04:39:36.955Z,101461.62
2018-02-20T04:42:12.447Z,101456.83
2018-02-20T04:44:47.257Z,101466.58
2018-02-20T04:47:22.262Z,101476.74
2018-02-20T04:49:57.548Z,101474.14
2018-02-20T04:52:32.523Z,101469.80
2018-02-20T04:55:07.968Z,101476.44
2018-02-20T04:57:43.060Z,101481.73
2018-02-20T05:00:18.256Z,101480.44
2018-02-20T05:02:52.999Z,101477.84
2018-02-20T05:05:28.244Z,101481.41
2018-02-20T05:08:03.544Z,101488.02
2018-02-20T05:10:38.129Z,101487.04
2018-02-20T05:13:13.423Z,101482.59
2018-02-20T05:15:48.419Z,101482.57
2018-02-20T05:18:23.987Z,101486.12
2018-02-20T05:20:59.175Z,101485.25
2018-02-20T05:23:34.431Z,101485.68
2018-02-20T05:26:09.635Z,101489.25
2018-02-20T05:28:44.348Z,101480.03
2018-02-20T05:31:19.208Z,101485.78
2018-02-20T05:33:53.668Z,101483.09
2018-02-20T05:36:28.162Z,101488.78
2018-02-20T05:39:02.939Z,101483.45
2018-02-20T05:41:37.649Z,101488.26
2018-02-20T05:44:12.911Z,101485.16
2018-02-20T05:46:48.290Z,101492.26
2018-02-20T05:49:23.291Z,101483.97
2018-02-20T05:51:58.281Z,101489.27
2018-02-20T05:54:33.227Z,101490.55
2018-02-20T05:57:09.027Z,101490.98
2018-02-20T05:59:44.374Z,101496.30
2018-02-20T06:02:19.424Z,101494.98
2018-02-20T06:04:54.723Z,101508.66
2018-02-20T06:07:29.347Z,101506.03
2018-02-20T06:10:03.927Z,101506.91
2018-02-20T06:12:39.192Z,101510.89
2018-02-20T06:15:14.391Z,101507.36
2018-02-20T06:17:49.422Z,101514.89
2018-02-20T06:20:24.591Z,101510.12
2018-02-20T06:22:59.902Z,101516.80
2018-02-20T06:25:35.279Z,101513.79
2018-02-20T06:28:10.575Z,101516.41
2018-02-20T06:30:46.215Z,101511.50
2018-02-20T06:33:21.269Z,101512.77
2018-02-20T06:35:57.653Z,101514.03
2018-02-20T06:38:32.708Z,101511.47
2018-02-20T06:41:08.300Z,101514.16
2018-02-20T06:43:43.306Z,101509.87
2018-02-20T06:46:18.295Z,101517.01
2018-02-20T06:48:53.427Z,101514.44
2018-02-20T06:51:28.579Z,101517.98
2018-02-20T06:54:03.761Z,101521.05
2018-02-20T06:56:38.803Z,101527.66
2018-02-20T06:59:14.590Z,101524.33
2018-02-20T07:01:50.007Z,101527.06
2018-02-20T07:04:25.491Z,101520.75
2018-02-20T07:07:00.415Z,101523.71
2018-02-20T07:09:35.492Z,101526.41
2018-02-20T07:12:10.766Z,101533.97
2018-02-20T07:14:46.183Z,101536.20
2018-02-20T07:17:21.396Z,101540.13
2018-02-20T07:19:57.703Z,101544.08
2018-02-20T07:22:32.657Z,101543.18
2018-02-20T07:25:07.531Z,101533.80
2018-02-20T07:27:41.881Z,101539.78
2018-02-20T07:30:17.447Z,101545.90
2018-02-20T07:32:52.411Z,101553.27
2018-02-20T07:35:27.655Z,101542.42
2018-02-20T07:38:03.477Z,101545.22
2018-02-20T07:40:38.012Z,101544.97
2018-02-20T07:43:12.691Z,101539.59
2018-02-20T07:45:47.393Z,101542.88
2018-02-20T07:48:22.547Z,101535.45
2018-02-20T07:50:57.808Z,101538.09
2018-02-20T07:53:32.884Z,101540.58
2018-02-20T07:56:08.424Z,101537.77
2018-02-20T07:58:43.790Z,101538.89
2018-02-20T08:01:19.035Z,101538.28
2018-02-20T08:03:53.703Z,101535.09
2018-02-20T08:06:28.600Z,101539.50
2018-02-20T08:09:03.048Z,101536.44
2018-02-20T08:11:37.627Z,101538.78
2018-02-20T08:14:13.047Z,101533.55
2018-02-20T08:16:48.131Z,101543.42
2018-02-20T08:19:22.867Z,101543.20
2018-02-20T08:21:57.971Z,101526.88
2018-02-20T08:24:32.827Z,101529.23
2018-02-20T08:27:07.838Z,101522.76
2018-02-20T08:29:43.150Z,101523.52
2018-02-20T08:32:18.340Z,101513.50
2018-02-20T08:34:53.649Z,101514.44
2018-02-20T08:37:28.607Z,101512.31
2018-02-20T08:40:03.540Z,101515.94
2018-02-20T08:42:38.525Z,101517.45
2018-02-20T08:45:13.799Z,101521.53
2018-02-20T08:47:48.715Z,101520.78
2018-02-20T08:50:23.754Z,101516.69
2018-02-20T08:52:59.001Z,101520.34
2018-02-20T08:55:33.676Z,101520.66
2018-02-20T08:58:09.124Z,101520.48
2018-02-20T09:00:44.004Z,101519.69
2018-02-20T09:03:18.735Z,101513.36
2018-02-20T09:05:53.888Z,101514.79
2018-02-20T09:08:28.664Z,101503.61
2018-02-20T09:11:03.936Z,101503.85
2018-02-20T09:13:38.776Z,101501.67
2018-02-20T09:16:14.044Z,101501.73
2018-02-20T09:18:49.205Z,101492.02
2018-02-20T09:21:24.775Z,101496.34
2018-02-20T09:23:59.627Z,101493.75
2018-02-20T09:26:34.632Z,101497.87
2018-02-20T09:29:09.870Z,101507.72
2018-02-20T09:31:44.840Z,101503.34
2018-02-20T09:34:19.875Z,101515.31
2018-02-20T09:36:55.048Z,101512.16
2018-02-20T09:39:29.979Z,101511.61
2018-02-20T09:42:05.028Z,101517.12
2018-02-20T09:44:40.083Z,101510.14
2018-02-20T09:47:15.671Z,101504.19
2018-02-20T09:49:50.843Z,101506.77
2018-02-20T09:52:26.135Z,101510.73
2018-02-20T09:55:00.904Z,101510.17
2018-02-20T09:57:35.719Z,101508.19
2018-02-20T10:00:10.072Z,101512.41
2018-02-20T10:02:44.864Z,101513.71
2018-02-20T10:05:19.756Z,101512.88
2018-02-20T10:07:54.916Z,101513.58
2018-02-20T10:10:30.021Z,101517.61
2018-02-20T10:13:06.564Z,101519.69
2018-02-20T10:15:41.844Z,101519.39
2018-02-20T10:18:17.150Z,101514.33
2018-02-20T10:20:51.992Z,101514.63
2018-02-20T10:23:26.987Z,101510.58
2018-02-20T10:26:02.716Z,101524.15
2018-02-20T10:28:37.839Z,101518.20
2018-02-20T10:31:13.039Z,101514.26
2018-02-20T10:33:48.312Z,101521.03
2018-02-20T10:36:23.315Z,101520.84
2018-02-20T10:38:58.760Z,101521.21
2018-02-20T10:41:33.821Z,101526.60
2018-02-20T10:44:09.280Z,101523.34
2018-02-20T10:46:44.838Z,101518.30
2018-02-20T10:49:19.947Z,101519.62
2018-02-20T10:51:55.039Z,101522.98
2018-02-20T10:54:30.016Z,101513.82
2018-02-20T10:57:05.667Z,101513.64
2018-02-20T10:59:40.971Z,101512.47
2018-02-20T11:02:16.250Z,101515.23
2018-02-20T11:04:51.279Z,101512.77
2018-02-20T11:07:25.767Z,101512.81
2018-02-20T11:10:01.239Z,101507.92
2018-02-20T11:12:36.371Z,101510.66
2018-02-20T11:15:12.135Z,101519.33
2018-02-20T11:17:47.064Z,101526.31
2018-02-20T11:20:21.923Z,101515.67
2018-02-20T11:22:56.275Z,101520.44
2018-02-20T11:25:31.235Z,101528.06
2018-02-20T11:28:06.055Z,101527.45
2018-02-20T11:30:41.038Z,101527.56
2018-02-20T11:33:16.083Z,101522.70
2018-02-20T11:35:50.931Z,101519.05
2018-02-20T11:38:26.088Z,101511.97
2018-02-20T11:41:00.630Z,101505.38
2018-02-20T11:43:35.579Z,101515.20
2018-02-20T11:46:10.515Z,101515.98
2018-02-20T11:48:45.161Z,101511.16
2018-02-20T11:51:20.200Z,101512.45
2018-02-20T11:53:55.196Z,101509.34
2018-02-20T11:56:30.179Z,101506.42
2018-02-20T11:59:05.312Z,101521.34
2018-02-20T12:01:40.060Z,101520.06
2018-02-20T12:04:15.244Z,101515.09
2018-02-20T12:06:50.048Z,101514.93
2018-02-20T12:09:25.691Z,101512.30
2018-02-20T12:12:01.134Z,101512.49
2018-02-20T12:14:36.438Z,101506.42
2018-02-20T12:17:12.091Z,101510.95
2018-02-20T12:19:47.534Z,101511.41
2018-02-20T12:22:23.038Z,101513.50
2018-02-20T12:24:58.446Z,101517.02
2018-02-20T12:27:33.223Z,101517.83
2018-02-20T12:30:08.037Z,101513.73
2018-02-20T12:32:43.235Z,101512.17
2018-02-20T12:35:18.173Z,101520.45
2018-02-20T12:37:52.612Z,101523.09
2018-02-20T12:40:27.570Z,101517.88
2018-02-20T12:43:03.447Z,101517.03
2018-02-20T12:45:38.511Z,101518.27
2018-02-20T12:48:13.656Z,101513.61
2018-02-20T12:50:49.092Z,101506.30
2018-02-20T12:53:24.164Z,101512.86
2018-02-20T12:55:59.607Z,101510.98
2018-02-20T12:58:34.299Z,101509.84
2018-02-20T13:01:09.143Z,101515.71
2018-02-20T13:03:44.351Z,101504.63
2018-02-20T13:06:19.408Z,101509.44
2018-02-20T13:08:54.616Z,101505.01
2018-02-20T13:11:29.472Z,101513.05
2018-02-20T13:14:05.452Z,101511.56
2018-02-20T13:16:40.650Z,101515.16
2018-02-20T13:19:16.141Z,101512.84
2018-02-20T13:21:51.283Z,101523.88
2018-02-20T13:24:26.362Z,101518.11
2018-02-20T13:27:01.252Z,101519.05
2018-02-20T13:29:36.323Z,101521.50
2018-02-20T13:32:10.771Z,101525.22
2018-02-20T13:34:46.275Z,101527.97
2018-02-20T13:37:21.331Z,101519.48
2018-02-20T13:39:56.412Z,101522.81
2018-02-20T13:42:31.340Z,101529.61
2018-02-20T13:45:06.154Z,101526.16
2018-02-20T13:47:41.184Z,101529.09
2018-02-20T13:50:16.223Z,101533.12
2018-02-20T13:52:51.162Z,101532.27
2018-02-20T13:55:26.435Z,101531.20
2018-02-20T13:58:01.499Z,101535.09
2018-02-20T14:00:36.395Z,101526.16
2018-02-20T14:03:11.355Z,101527.61
2018-02-20T14:05:46.343Z,101521.13
2018-02-20T14:08:21.354Z,101533.62
2018-02-20T14:10:56.175Z,101531.25
2018-02-20T14:13:31.447Z,101533.56
2018-02-20T14:16:06.619Z,101528.00
2018-02-20T14:18:41.488Z,101525.11
2018-02-20T14:21:16.440Z,101532.22
2018-02-20T14:23:51.757Z,101525.97
2018-02-20T14:26:26.700Z,101526.50
2018-02-20T14:29:01.771Z,101523.23
2018-02-20T14:31:36.843Z,101530.59
2018-02-20T14:34:11.899Z,101520.64
2018-02-20T14:36:47.399Z,101529.36
2018-02-20T14:39:22.431Z,101531.48
2018-02-20T14:41:57.539Z,101532.37
2018-02-20T14:44:31.959Z,101538.25
2018-02-20T14:47:06.592Z,101532.24
2018-02-20T14:49:41.311Z,101528.47
2018-02-20T14:52:16.195Z,101531.36
2018-02-20T14:54:51.676Z,101531.75
2018-02-20T14:57:26.550Z,101529.40
2018-02-20T15:00:01.879Z,101536.66
2018-02-20T15:02:37.435Z,101534.59
2018-02-20T15:05:12.687Z,101537.26
2018-02-20T15:07:47.427Z,101535.66
2018-02-20T15:10:21.959Z,101536.73
2018-02-20T15:12:56.943Z,101542.89
2018-02-20T15:15:32.571Z,101538.60
2018-02-20T15:18:07.035Z,101535.80
2018-02-20T15:20:42.383Z,101543.03
2018-02-20T15:23:17.436Z,101538.23
2018-02-20T15:25:52.694Z,101539.80
2018-02-20T15:28:27.910Z,101541.84
2018-02-20T15:31:02.730Z,101551.56
2018-02-20T15:33:37.767Z,101549.13
2018-02-20T15:36:13.575Z,101550.69
2018-02-20T15:38:48.604Z,101553.02
2018-02-20T15:41:23.588Z,101551.86
2018-02-20T15:43:58.956Z,101562.00
2018-02-20T15:46:34.408Z,101555.11
2018-02-20T15:49:09.484Z,101555.00
2018-02-20T15:51:43.921Z,101549.55
2018-02-20T15:54:18.568Z,101559.17
2018-02-20T15:56:53.120Z,101556.60
2018-02-20T15:59:27.830Z,101563.20
2018-02-20T16:02:02.619Z,101565.34
2018-02-20T16:04:37.572Z,101569.72
2018-02-20T16:07:12.815Z,101575.86
2018-02-20T16:09:47.571Z,101572.16
2018-02-20T16:12:22.898Z,101576.09
2018-02-20T16:14:58.703Z,101583.00
2018-02-20T16:17:33.768Z,101579.91
2018-02-20T16:20:09.592Z,101586.91
2018-02-20T16:22:44.736Z,101589.42
2018-02-20T16:25:19.523Z,101593.73
2018-02-20T16:27:54.481Z,101597.34
2018-02-20T16:30:29.608Z,101600.28
2018-02-20T16:33:03.824Z,101597.90
2018-02-20T16:35:38.720Z,101607.95
2018-02-20T16:38:13.609Z,101608.48
2018-02-20T16:40:49.084Z,101617.16
2018-02-20T16:43:23.915Z,101614.16
2018-02-20T16:45:59.078Z,101615.69
2018-02-20T16:48:34.044Z,101615.37
2018-02-20T16:51:09.054Z,101615.59
2018-02-20T16:53:44.802Z,101621.09
2018-02-20T16:56:19.659Z,101620.95
2018-02-20T16:58:54.888Z,101631.08
2018-02-20T17:01:30.480Z,101615.77
2018-02-20T17:04:04.900Z,101627.64
2018-02-20T17:06:40.181Z,101632.04
2018-02-20T17:09:15.616Z,101627.97
2018-02-20T17:11:50.466Z,101643.61
2018-02-20T17:14:24.987Z,101644.20
2018-02-20T17:17:00.040Z,101645.78
2018-02-20T17:19:35.116Z,101655.44
2018-02-20T17:22:10.371Z,101648.84
2018-02-20T17:24:44.850Z,101646.57
2018-02-20T17:27:20.099Z,101649.91
2018-02-20T17:29:54.699Z,101654.08
2018-02-20T17:32:29.296Z,101664.11
2018-02-20T17:35:03.708Z,101670.83
2018-02-20T17:37:38.963Z,101668.28
2018-02-20T17:40:14.156Z,101674.23
2018-02-20T17:42:49.062Z,101678.55
2018-02-20T17:45:24.143Z,101678.83
2018-02-20T17:47:59.567Z,101683.84
2018-02-20T17:50:33.768Z,101685.33
2018-02-20T17:53:12.367Z,101687.75
2018-02-20T17:55:47.122Z,101689.28
2018-02-20T17:58:22.184Z,101698.26
2018-02-20T18:00:57.031Z,101710.20
2018-02-20T18:03:31.994Z,101702.68
2018-02-20T18:06:07.707Z,101709.23
2018-02-20T18:08:42.803Z,101713.23
2018-02-20T18:11:17.168Z,101714.00
2018-02-20T18:13:51.618Z,101716.98
2018-02-20T18:16:26.954Z,101721.42
2018-02-20T18:19:02.236Z,101724.13
2018-02-20T18:21:37.832Z,101725.16
2018-02-20T18:24:12.179Z,101736.38
2018-02-20T18:26:46.823Z,101742.20
2018-02-20T18:29:21.075Z,101742.30
2018-02-20T18:31:55.995Z,101751.70
2018-02-20T18:34:31.076Z,101758.52
2018-02-20T18:37:06.413Z,101761.34
2018-02-20T18:39:41.745Z,101770.24
2018-02-20T18:42:16.812Z,101767.03
2018-02-20T18:44:51.794Z,101776.59
2018-02-20T18:47:26.940Z,101781.70
2018-02-20T18:50:18.882Z,101781.59
2018-02-20T18:52:55.119Z,101779.84
2018-02-20T18:55:29.971Z,101776.31
2018-02-20T18:58:04.759Z,101781.61
2018-02-20T19:00:39.239Z,101791.30
2018-02-20T19:03:14.003Z,101796.15
2018-02-20T19:05:50.901Z,101796.09
2018-02-20T19:08:25.873Z,101796.50
2018-02-20T19:11:01.323Z,101793.83
2018-02-20T19:13:36.247Z,101793.27
2018-02-20T19:16:11.586Z,101775.27
2018-02-20T19:18:46.891Z,101792.60
2018-02-20T19:21:21.986Z,101796.16
2018-02-20T19:23:56.948Z,101801.77
2018-02-20T19:26:32.100Z,101800.79
2018-02-20T19:29:07.399Z,101802.89
2018-02-20T19:31:42.475Z,101800.64
2018-02-20T19:34:17.176Z,101803.71
2018-02-20T19:36:51.601Z,101802.41
2018-02-20T19:39:27.031Z,101806.54
2018-02-20T19:42:02.220Z,101811.45
2018-02-20T19:44:37.419Z,101816.75
2018-02-20T19:47:13.131Z,101809.33
2018-02-20T19:49:49.292Z,101811.80
2018-02-20T19:52:24.431Z,101811.03
2018-02-20T19:54:59.295Z,101818.23
2018-02-20T19:57:34.030Z,101820.04
2018-02-20T20:00:08.704Z,101825.91
2018-02-20T20:02:43.460Z,101827.48
2018-02-20T20:05:18.018Z,101831.15
2018-02-20T20:07:53.176Z,101834.41
2018-02-20T20:10:28.151Z,101840.59
2018-02-20T20:13:03.388Z,101833.87
2018-02-20T20:15:38.459Z,101836.19
2018-02-20T20:18:13.569Z,101830.88
2018-02-20T20:20:49.043Z,101827.05
2018-02-20T20:23:24.421Z,101825.86
2018-02-20T20:25:59.131Z,101827.66
2018-02-20T20:28:34.239Z,101837.05
2018-02-20T20:31:09.368Z,101839.23
2018-02-20T20:33:44.484Z,101845.03
2018-02-20T20:36:19.636Z,101844.50
2018-02-20T20:38:55.271Z,101839.20
2018-02-20T20:41:30.274Z,101851.19
2018-02-20T20:44:04.723Z,101850.30
2018-02-20T20:46:39.467Z,101855.72
2018-02-20T20:49:14.451Z,101853.64
2018-02-20T20:51:49.435Z,101862.08
2018-02-20T20:54:24.548Z,101866.05
2018-02-20T20:56:59.536Z,101870.54
2018-02-20T20:59:35.111Z,101875.92
2018-02-20T21:02:10.583Z,101878.11
2018-02-20T21:04:45.527Z,101880.27
2018-02-20T21:07:20.147Z,101879.36
2018-02-20T21:09:55.271Z,101879.44
2018-02-20T21:12:30.135Z,101887.52
2018-02-20T21:15:05.189Z,101885.47
2018-02-20T21:17:40.230Z,101885.47
2018-02-20T21:20:15.451Z,101890.32
2018-02-20T21:22:50.747Z,101892.62
2018-02-20T21:25:25.784Z,101892.68
2018-02-20T21:28:01.327Z,101895.32
2018-02-20T21:30:36.184Z,101897.50
2018-02-20T21:33:11.463Z,101890.02
2018-02-20T21:35:46.436Z,101897.14
2018-02-20T21:38:21.581Z,101900.73
2018-02-20T21:40:56.648Z,101908.80
2018-02-20T21:43:31.475Z,101907.59
2018-02-20T21:46:06.272Z,101914.39
2018-02-20T21:48:41.200Z,101918.55
2018-02-20T21:51:16.619Z,101925.94
2018-02-20T21:53:51.926Z,101927.08
2018-02-20T21:56:26.592Z,101929.92
2018-02-20T21:59:01.712Z,101929.63
2018-02-20T22:01:36.273Z,101931.53
2018-02-20T22:04:11.498Z,101924.96
2018-02-20T22:06:45.919Z,101931.61
2018-02-20T22:09:21.326Z,101928.11
2018-02-20T22:11:56.711Z,101931.23
2018-02-20T22:14:31.789Z,101938.21
2018-02-20T22:17:07.183Z,101943.84
2018-02-20T22:19:41.836Z,101941.61
2018-02-20T22:22:17.028Z,101952.15
2018-02-20T22:24:51.595Z,101949.46
2018-02-20T22:27:25.927Z,101946.77
2018-02-20T22:30:00.682Z,101944.48
2018-02-20T22:32:36.239Z,101952.36
2018-02-20T22:35:11.508Z,101949.20
2018-02-20T22:37:45.968Z,101957.95
2018-02-20T22:40:20.311Z,101965.98
2018-02-20T22:42:55.634Z,101970.50
2018-02-20T22:45:30.968Z,101967.41
2018-02-20T22:48:05.591Z,101970.98
2018-02-20T22:50:40.747Z,101979.20
2018-02-20T22:53:16.271Z,101977.95
2018-02-20T22:55:51.428Z,101987.67
2018-02-20T22:58:26.257Z,101996.14
2018-02-20T23:01:01.616Z,101994.53
2018-02-20T23:03:36.532Z,101995.92
2018-02-20T23:06:11.708Z,101992.45
2018-02-20T23:08:46.575Z,101984.16
2018-02-20T23:11:32.711Z,101983.34
2018-02-20T23:14:07.470Z,101987.67
2018-02-20T23:16:42.407Z,101988.12
2018-02-20T23:19:17.807Z,101989.91
2018-02-20T23:21:53.299Z,101990.90
2018-02-20T23:24:28.328Z,102001.31
2018-02-20T23:27:03.518Z,102004.73
2018-02-20T23:29:38.552Z,102004.12
2018-02-20T23:32:13.186Z,102002.45
2018-02-20T23:34:48.561Z,102002.08
2018-02-20T23:37:23.579Z,102006.44
2018-02-20T23:39:59.928Z,102012.16
2018-02-20T23:42:34.699Z,102015.27
2018-02-20T23:45:20.180Z,102018.11
2018-02-20T23:47:54.437Z,102016.09
2018-02-20T23:50:29.573Z,102013.55
2018-02-20T23:53:04.511Z,102013.09
2018-02-20T23:55:39.532Z,102017.05
2018-02-20T23:58:15.111Z,102017.95
